Airfield :
LOGIN :

Register | Disclaimer

   EN    FR    IT 

 










Legend :    VFR   Marginal VFR   IFR   Intensive IFR   Very Intensive IFR
Visi :
Ceiling :
>= 8 km
>= 3000ft
5 to 8 km
1000 to 3000 ft
1500m to 5 km
500 to 1000 ft
800 to 1500m
200 to 500 ft
< 800m
< 200 ft
Symbols :   Thunderstorms  Fog  Heavy snow  Heavy precipitations  Wind > 20 kt
SIGMETs :     Misc.  Thunderstorms  Icing  Turbulence  Mountain Waves  Volcanic Ashes






- Airport Elevation : 13 ft
- IATA code : OST


EBOS - Oostend bruges Int.

CURRENT METAR :
  • 261020Z 22010KT 6000 BKN022 02/00 Q1033 NOSIG

EXPIRED METARs :
  • 260950Z 22009KT 6000 FEW015 BKN018 02/00 Q1033 NOSIG
  • 260920Z 23008KT 6000 SCT014 BKN016 02/M00 Q1034 TEMPO BKN014
  • 260850Z 23007KT 6000 SCT011 BKN015 02/00 Q1034 TEMPO BKN014
  • 260820Z 24008KT 7000 SCT013 BKN016 03/00 Q1034 NOSIG
  • 260750Z 27007KT 230V300 9000 SCT014 BKN016 03/M00 Q1033 NOSIG

TAF TAF EBOS
Valid from the 26 at 06:00 until the 27 at 12:00 UTC


260502Z 2606/2712 27006KT 8000 BKN016
PROB40 2606/2609 BKN012
BECMG 2700/2703 25016KT



MET'MAP, your aeronautical weather chart ! - Copyright ORBIFLY December 2007 - Disclaimer

ORBIFLY MET'MAP TEAM :

Programming & Development : Alexandra Zaïnal
Original concept : Baudouin d'Aumeries
Technical & hardware support : Manuel Goepfert
Assistance : Marc-Olivier Méhu

Contact : metmap@orbifly.com




SOURCES & CREDITS :

   NOAA